sensor_id;sensor_type;location;lat;lon;timestamp;pressure;altitude;pressure_sealevel;temperature;humidity
37238;BME280;23129;49.662;8.448;2023-02-18T00:01:42;101543.94;;;12.81;100.00
37238;BME280;23129;49.662;8.448;2023-02-18T00:04:10;101543.94;;;12.81;100.00
37238;BME280;23129;49.662;8.448;2023-02-18T00:06:39;101554.47;;;12.81;100.00
37238;BME280;23129;49.662;8.448;2023-02-18T00:09:10;101540.41;;;12.82;100.00
37238;BME280;23129;49.662;8.448;2023-02-18T00:11:39;101549.22;;;12.81;100.00
37238;BME280;23129;49.662;8.448;2023-02-18T00:14:12;101549.22;;;12.81;100.00
37238;BME280;23129;49.662;8.448;2023-02-18T00:16:41;101545.66;;;12.82;100.00
37238;BME280;23129;49.662;8.448;2023-02-18T00:19:14;101548.28;;;12.82;100.00
37238;BME280;23129;49.662;8.448;2023-02-18T00:21:43;101541.25;;;12.82;100.00
37238;BME280;23129;49.662;8.448;2023-02-18T00:24:15;101547.38;;;12.83;100.00
37238;BME280;23129;49.662;8.448;2023-02-18T00:26:44;101541.25;;;12.84;100.00
37238;BME280;23129;49.662;8.448;2023-02-18T00:29:12;101547.34;;;12.86;100.00
37238;BME280;23129;49.662;8.448;2023-02-18T00:31:41;101545.59;;;12.85;100.00
37238;BME280;23129;49.662;8.448;2023-02-18T00:34:11;101541.19;;;12.85;100.00
37238;BME280;23129;49.662;8.448;2023-02-18T00:36:39;101535.94;;;12.85;100.00
37238;BME280;23129;49.662;8.448;2023-02-18T00:39:09;101548.25;;;12.85;100.00
37238;BME280;23129;49.662;8.448;2023-02-18T00:41:40;101538.63;;;12.84;100.00
37238;BME280;23129;49.662;8.448;2023-02-18T00:44:09;101534.22;;;12.83;100.00
37238;BME280;23129;49.662;8.448;2023-02-18T00:46:39;101532.50;;;12.80;100.00
37238;BME280;23129;49.662;8.448;2023-02-18T00:49:08;101543.09;;;12.77;100.00
37238;BME280;23129;49.662;8.448;2023-02-18T00:51:36;101538.78;;;12.74;100.00
37238;BME280;23129;49.662;8.448;2023-02-18T00:54:05;101537.09;;;12.70;100.00
37238;BME280;23129;49.662;8.448;2023-02-18T00:56:34;101540.63;;;12.69;100.00
37238;BME280;23129;49.662;8.448;2023-02-18T00:59:03;101533.69;;;12.65;100.00
37238;BME280;23129;49.662;8.448;2023-02-18T01:01:32;101537.28;;;12.61;100.00
37238;BME280;23129;49.662;8.448;2023-02-18T01:04:01;101533.84;;;12.56;100.00
37238;BME280;23129;49.662;8.448;2023-02-18T01:06:31;101547.97;;;12.52;100.00
37238;BME280;23129;49.662;8.448;2023-02-18T01:08:59;101555.97;;;12.46;100.00
37238;BME280;23129;49.662;8.448;2023-02-18T01:11:29;101550.81;;;12.40;100.00
37238;BME280;23129;49.662;8.448;2023-02-18T01:13:57;101549.16;;;12.34;100.00
37238;BME280;23129;49.662;8.448;2023-02-18T01:16:30;101565.91;;;12.28;100.00
37238;BME280;23129;49.662;8.448;2023-02-18T01:18:58;101559.00;;;12.24;100.00
37238;BME280;23129;49.662;8.448;2023-02-18T01:21:27;101559.03;;;12.21;100.00
37238;BME280;23129;49.662;8.448;2023-02-18T01:23:55;101552.97;;;12.18;100.00
37238;BME280;23129;49.662;8.448;2023-02-18T01:26:24;101551.25;;;12.15;100.00
37238;BME280;23129;49.662;8.448;2023-02-18T01:28:53;101546.91;;;12.13;100.00
37238;BME280;23129;49.662;8.448;2023-02-18T01:31:21;101538.19;;;12.09;100.00
37238;BME280;23129;49.662;8.448;2023-02-18T01:33:51;101539.06;;;12.08;100.00
37238;BME280;23129;49.662;8.448;2023-02-18T01:36:20;101529.47;;;12.07;100.00
37238;BME280;23129;49.662;8.448;2023-02-18T01:38:49;101538.25;;;12.06;100.00
37238;BME280;23129;49.662;8.448;2023-02-18T01:41:17;101527.69;;;12.07;100.00
37238;BME280;23129;49.662;8.448;2023-02-18T01:43:47;101533.00;;;12.06;100.00
37238;BME280;23129;49.662;8.448;2023-02-18T01:46:18;101536.44;;;12.08;100.00
37238;BME280;23129;49.662;8.448;2023-02-18T01:48:53;101522.44;;;12.07;100.00
37238;BME280;23129;49.662;8.448;2023-02-18T01:51:25;101538.19;;;12.09;100.00
37238;BME280;23129;49.662;8.448;2023-02-18T01:53:57;101525.94;;;12.08;100.00
37238;BME280;23129;49.662;8.448;2023-02-18T01:56:31;101534.72;;;12.07;100.00
37238;BME280;23129;49.662;8.448;2023-02-18T01:59:05;101536.44;;;12.08;100.00
37238;BME280;23129;49.662;8.448;2023-02-18T02:01:35;101529.47;;;12.07;100.00
37238;BME280;23129;49.662;8.448;2023-02-18T02:04:06;101525.94;;;12.08;100.00
37238;BME280;23129;49.662;8.448;2023-02-18T02:06:34;101532.03;;;12.10;100.00
37238;BME280;23129;49.662;8.448;2023-02-18T02:09:05;101522.38;;;12.12;100.00
37238;BME280;23129;49.662;8.448;2023-02-18T02:11:58;101517.13;;;12.12;100.00
37238;BME280;23129;49.662;8.448;2023-02-18T02:14:46;101505.72;;;12.12;100.00
37238;BME280;23129;49.662;8.448;2023-02-18T02:17:29;101506.59;;;12.12;100.00
37238;BME280;23129;49.662;8.448;2023-02-18T02:27:18;101484.66;;;12.13;100.00
37238;BME280;23129;49.662;8.448;2023-02-18T02:33:58;101476.75;;;12.13;100.00
37238;BME280;23129;49.662;8.448;2023-02-18T02:36:37;101478.47;;;12.14;100.00
37238;BME280;23129;49.662;8.448;2023-02-18T02:39:13;101467.97;;;12.14;100.00
37238;BME280;23129;49.662;8.448;2023-02-18T02:41:51;101469.72;;;12.15;100.00
37238;BME280;23129;49.662;8.448;2023-02-18T02:44:29;101474.06;;;12.18;100.00
37238;BME280;23129;49.662;8.448;2023-02-18T02:47:08;101472.25;;;12.20;100.00
37238;BME280;23129;49.662;8.448;2023-02-18T02:49:46;101476.59;;;12.22;100.00
37238;BME280;23129;49.662;8.448;2023-02-18T02:52:22;101459.03;;;12.24;100.00
37238;BME280;23129;49.662;8.448;2023-02-18T02:54:53;101482.66;;;12.26;100.00
37238;BME280;23129;49.662;8.448;2023-02-18T02:57:49;101467.72;;;12.26;100.00
37238;BME280;23129;49.662;8.448;2023-02-18T03:00:31;101474.75;;;12.27;100.00
37238;BME280;23129;49.662;8.448;2023-02-18T03:06:32;101461.56;;;12.29;100.00
37238;BME280;23129;49.662;8.448;2023-02-18T03:09:09;101458.91;;;12.30;100.00
37238;BME280;23129;49.662;8.448;2023-02-18T03:11:49;101453.66;;;12.30;100.00
37238;BME280;23129;49.662;8.448;2023-02-18T03:14:27;101453.66;;;12.30;100.00
37238;BME280;23129;49.662;8.448;2023-02-18T03:17:01;101450.09;;;12.31;100.00
37238;BME280;23129;49.662;8.448;2023-02-18T03:19:34;101450.09;;;12.31;100.00
37238;BME280;23129;49.662;8.448;2023-02-18T03:22:09;101443.13;;;12.30;100.00
37238;BME280;23129;49.662;8.448;2023-02-18T03:24:42;101451.00;;;12.30;100.00
37238;BME280;23129;49.662;8.448;2023-02-18T03:27:19;101447.53;;;12.30;100.00
37238;BME280;23129;49.662;8.448;2023-02-18T03:29:51;101441.44;;;12.26;100.00
37238;BME280;23129;49.662;8.448;2023-02-18T03:32:23;101447.59;;;12.25;100.00
37238;BME280;23129;49.662;8.448;2023-02-18T03:34:59;101448.50;;;12.24;100.00
37238;BME280;23129;49.662;8.448;2023-02-18T03:37:31;101446.72;;;12.25;100.00
37238;BME280;23129;49.662;8.448;2023-02-18T03:40:06;101443.25;;;12.24;100.00
37238;BME280;23129;49.662;8.448;2023-02-18T03:42:37;101452.91;;;12.24;100.00
37238;BME280;23129;49.662;8.448;2023-02-18T03:45:06;101466.00;;;12.25;100.00
37238;BME280;23129;49.662;8.448;2023-02-18T03:47:35;101452.84;;;12.27;100.00
37238;BME280;23129;49.662;8.448;2023-02-18T03:50:05;101462.47;;;12.26;100.00
37238;BME280;23129;49.662;8.448;2023-02-18T03:52:34;101443.19;;;12.27;100.00
37238;BME280;23129;49.662;8.448;2023-02-18T03:55:05;101455.44;;;12.28;100.00
37238;BME280;23129;49.662;8.448;2023-02-18T03:57:35;101453.66;;;12.30;100.00
37238;BME280;23129;49.662;8.448;2023-02-18T04:00:07;101452.75;;;12.31;100.00
37238;BME280;23129;49.662;8.448;2023-02-18T04:02:39;101472.91;;;12.32;100.00
37238;BME280;23129;49.662;8.448;2023-02-18T04:05:08;101451.88;;;12.32;100.00
37238;BME280;23129;49.662;8.448;2023-02-18T04:07:37;101453.59;;;12.33;100.00
37238;BME280;23129;49.662;8.448;2023-02-18T04:10:08;101450.06;;;12.34;100.00
37238;BME280;23129;49.662;8.448;2023-02-18T04:12:37;101446.53;;;12.36;100.00
37238;BME280;23129;49.662;8.448;2023-02-18T04:15:06;101471.94;;;12.37;100.00
37238;BME280;23129;49.662;8.448;2023-02-18T04:17:34;101457.00;;;12.39;100.00
37238;BME280;23129;49.662;8.448;2023-02-18T04:20:03;101446.47;;;12.39;100.00
37238;BME280;23129;49.662;8.448;2023-02-18T04:22:32;101455.25;;;12.38;100.00
37238;BME280;23129;49.662;8.448;2023-02-18T04:25:00;101440.38;;;12.35;100.00
37238;BME280;23129;49.662;8.448;2023-02-18T04:27:30;101432.53;;;12.33;100.00
37238;BME280;23129;49.662;8.448;2023-02-18T04:29:59;101433.44;;;12.32;100.00
37238;BME280;23129;49.662;8.448;2023-02-18T04:32:27;101436.94;;;12.31;100.00
37238;BME280;23129;49.662;8.448;2023-02-18T04:34:56;101440.56;;;12.27;100.00
37238;BME280;23129;49.662;8.448;2023-02-18T04:37:24;101466.00;;;12.25;100.00
37238;BME280;23129;49.662;8.448;2023-02-18T04:39:53;101443.31;;;12.21;100.00
37238;BME280;23129;49.662;8.448;2023-02-18T04:42:22;101446.84;;;12.19;100.00
37238;BME280;23129;49.662;8.448;2023-02-18T04:44:51;101449.56;;;12.14;100.00
37238;BME280;23129;49.662;8.448;2023-02-18T04:47:20;101443.47;;;12.12;100.00
37238;BME280;23129;49.662;8.448;2023-02-18T04:49:49;101457.50;;;12.11;100.00
37238;BME280;23129;49.662;8.448;2023-02-18T04:52:17;101456.69;;;12.09;99.82
37238;BME280;23129;49.662;8.448;2023-02-18T04:54:46;101447.88;;;12.12;99.49
37238;BME280;23129;49.662;8.448;2023-02-18T04:57:15;101478.53;;;12.11;99.25
37238;BME280;23129;49.662;8.448;2023-02-18T04:59:43;101445.19;;;12.13;98.82
37238;BME280;23129;49.662;8.448;2023-02-18T05:02:13;101454.00;;;12.12;99.05
37238;BME280;23129;49.662;8.448;2023-02-18T05:04:41;101452.19;;;12.14;98.84
37238;BME280;23129;49.662;8.448;2023-02-18T05:07:10;101457.44;;;12.14;98.62
37238;BME280;23129;49.662;8.448;2023-02-18T05:09:38;101460.97;;;12.13;98.73
37238;BME280;23129;49.662;8.448;2023-02-18T05:12:07;101456.56;;;12.14;98.54
37238;BME280;23129;49.662;8.448;2023-02-18T05:14:36;101464.47;;;12.15;98.45
37238;BME280;23129;49.662;8.448;2023-02-18T05:17:04;101462.66;;;12.17;98.25
37238;BME280;23129;49.662;8.448;2023-02-18T05:19:34;101464.41;;;12.18;98.12
37238;BME280;23129;49.662;8.448;2023-02-18T05:22:02;101466.97;;;12.20;98.18
37238;BME280;23129;49.662;8.448;2023-02-18T05:24:31;101448.56;;;12.21;97.64
37238;BME280;23129;49.662;8.448;2023-02-18T05:26:59;101452.06;;;12.22;97.95
37238;BME280;23129;49.662;8.448;2023-02-18T05:29:28;101442.44;;;12.21;97.75
37238;BME280;23129;49.662;8.448;2023-02-18T05:31:56;101437.13;;;12.22;97.37
37238;BME280;23129;49.662;8.448;2023-02-18T05:34:25;101452.91;;;12.22;97.17
37238;BME280;23129;49.662;8.448;2023-02-18T05:36:54;101438.91;;;12.22;97.17
37238;BME280;23129;49.662;8.448;2023-02-18T05:39:23;101467.78;;;12.25;96.68
37238;BME280;23129;49.662;8.448;2023-02-18T05:41:51;101451.13;;;12.24;96.52
37238;BME280;23129;49.662;8.448;2023-02-18T05:44:20;101452.84;;;12.25;96.51
37238;BME280;23129;49.662;8.448;2023-02-18T05:46:59;101437.97;;;12.24;96.52
37238;BME280;23129;49.662;8.448;2023-02-18T05:49:28;101436.16;;;12.26;96.12
37238;BME280;23129;49.662;8.448;2023-02-18T05:51:58;101446.69;;;12.26;96.11
37238;BME280;23129;49.662;8.448;2023-02-18T05:54:27;101437.06;;;12.25;95.87
37238;BME280;23129;49.662;8.448;2023-02-18T05:56:56;101424.81;;;12.24;95.77
37238;BME280;23129;49.662;8.448;2023-02-18T05:59:24;101432.78;;;12.21;96.01
37238;BME280;23129;49.662;8.448;2023-02-18T06:01:53;101434.56;;;12.19;96.01
37238;BME280;23129;49.662;8.448;2023-02-18T06:04:22;101436.34;;;12.17;95.98
37238;BME280;23129;49.662;8.448;2023-02-18T06:06:50;101455.66;;;12.16;95.94
37238;BME280;23129;49.662;8.448;2023-02-18T06:09:20;101432.91;;;12.15;95.90
37238;BME280;23129;49.662;8.448;2023-02-18T06:11:49;101438.16;;;12.15;95.69
37238;BME280;23129;49.662;8.448;2023-02-18T06:14:17;101429.41;;;12.13;95.57
37238;BME280;23129;49.662;8.448;2023-02-18T06:16:46;101443.47;;;12.12;95.83
37238;BME280;23129;49.662;8.448;2023-02-18T06:19:14;101432.94;;;12.12;95.64
37238;BME280;23129;49.662;8.448;2023-02-18T06:21:43;101426.84;;;12.10;95.49
37238;BME280;23129;49.662;8.448;2023-02-18T06:24:11;101413.69;;;12.10;95.35
37238;BME280;23129;49.662;8.448;2023-02-18T06:26:41;101414.59;;;12.09;95.17
37238;BME280;23129;49.662;8.448;2023-02-18T06:29:09;101420.72;;;12.08;95.09
37238;BME280;23129;49.662;8.448;2023-02-18T06:31:38;101408.50;;;12.07;94.92
37238;BME280;23129;49.662;8.448;2023-02-18T06:34:07;101417.25;;;12.07;94.91
37238;BME280;23129;49.662;8.448;2023-02-18T06:36:35;101406.78;;;12.06;95.05
37238;BME280;23129;49.662;8.448;2023-02-18T06:39:04;101415.53;;;12.05;95.22
37238;BME280;23129;49.662;8.448;2023-02-18T06:41:33;101413.81;;;12.04;94.89
37238;BME280;23129;49.662;8.448;2023-02-18T06:44:03;101419.06;;;12.04;94.86
37238;BME280;23129;49.662;8.448;2023-02-18T06:46:32;101429.59;;;12.04;94.62
37238;BME280;23129;49.662;8.448;2023-02-18T06:49:01;101407.63;;;12.06;94.46
37238;BME280;23129;49.662;8.448;2023-02-18T06:51:29;101414.66;;;12.06;94.13
37238;BME280;23129;49.662;8.448;2023-02-18T06:53:58;101427.81;;;12.06;94.18
37238;BME280;23129;49.662;8.448;2023-02-18T06:56:26;101432.22;;;12.04;94.18
37238;BME280;23129;49.662;8.448;2023-02-18T06:58:57;101416.44;;;12.04;94.12
37238;BME280;23129;49.662;8.448;2023-02-18T07:01:27;101426.97;;;12.04;94.25
37238;BME280;23129;49.662;8.448;2023-02-18T07:03:55;101419.06;;;12.04;94.50
37238;BME280;23129;49.662;8.448;2023-02-18T07:06:24;101412.09;;;12.03;94.31
37238;BME280;23129;49.662;8.448;2023-02-18T07:08:52;101394.56;;;12.02;94.33
37238;BME280;23129;49.662;8.448;2023-02-18T07:11:21;101406.84;;;12.01;94.34
37238;BME280;23129;49.662;8.448;2023-02-18T07:13:50;101398.09;;;12.01;94.57
37238;BME280;23129;49.662;8.448;2023-02-18T07:16:18;101403.31;;;12.02;94.43
37238;BME280;23129;49.662;8.448;2023-02-18T07:18:48;101399.75;;;12.05;94.37
37238;BME280;23129;49.662;8.448;2023-02-18T07:21:17;101401.50;;;12.06;94.49
37238;BME280;23129;49.662;8.448;2023-02-18T07:23:45;101395.34;;;12.07;94.51
37238;BME280;23129;49.662;8.448;2023-02-18T07:26:14;101401.44;;;12.09;94.51
37238;BME280;23129;49.662;8.448;2023-02-18T07:28:42;101400.53;;;12.10;94.67
37238;BME280;23129;49.662;8.448;2023-02-18T07:31:11;101401.41;;;12.12;94.49
37238;BME280;23129;49.662;8.448;2023-02-18T07:33:40;101385.59;;;12.12;94.33
37238;BME280;23129;49.662;8.448;2023-02-18T07:36:10;101381.22;;;12.13;94.49
37238;BME280;23129;49.662;8.448;2023-02-18T07:38:38;101382.94;;;12.14;94.41
37238;BME280;23129;49.662;8.448;2023-02-18T07:41:15;101380.28;;;12.15;94.12
37238;BME280;23129;49.662;8.448;2023-02-18T07:43:45;101373.22;;;12.17;94.08
37238;BME280;23129;49.662;8.448;2023-02-18T07:46:13;101389.84;;;12.21;94.06
37238;BME280;23129;49.662;8.448;2023-02-18T07:48:42;101383.56;;;12.26;93.69
37238;BME280;23129;49.662;8.448;2023-02-18T07:51:12;101394.91;;;12.28;93.23
37238;BME280;23129;49.662;8.448;2023-02-18T07:53:41;101376.44;;;12.31;93.26
37238;BME280;23129;49.662;8.448;2023-02-18T07:56:10;101385.19;;;12.33;93.04
37238;BME280;23129;49.662;8.448;2023-02-18T07:58:39;101389.53;;;12.34;92.99
37238;BME280;23129;49.662;8.448;2023-02-18T08:01:09;101386.03;;;12.36;93.11
37238;BME280;23129;49.662;8.448;2023-02-18T08:03:39;101390.38;;;12.37;92.98
37238;BME280;23129;49.662;8.448;2023-02-18T08:06:12;101386.84;;;12.38;93.13
37238;BME280;23129;49.662;8.448;2023-02-18T08:08:47;101377.19;;;12.38;93.21
37238;BME280;23129;49.662;8.448;2023-02-18T08:11:16;101372.81;;;12.39;93.10
37238;BME280;23129;49.662;8.448;2023-02-18T08:13:46;101364.00;;;12.40;93.10
37238;BME280;23129;49.662;8.448;2023-02-18T08:16:15;101364.84;;;12.42;92.94
37238;BME280;23129;49.662;8.448;2023-02-18T08:18:44;101356.91;;;12.45;92.82
37238;BME280;23129;49.662;8.448;2023-02-18T08:21:14;101371.72;;;12.49;92.41
37238;BME280;23129;49.662;8.448;2023-02-18T08:23:43;101365.47;;;12.53;92.02
37238;BME280;23129;49.662;8.448;2023-02-18T08:26:14;101367.16;;;12.57;91.61
37238;BME280;23129;49.662;8.448;2023-02-18T08:28:43;101356.56;;;12.60;91.66
37238;BME280;23129;49.662;8.448;2023-02-18T08:31:17;101368.75;;;12.64;91.40
37238;BME280;23129;49.662;8.448;2023-02-18T08:33:46;101366.09;;;12.66;91.33
37238;BME280;23129;49.662;8.448;2023-02-18T08:36:14;101369.53;;;12.68;91.04
37238;BME280;23129;49.662;8.448;2023-02-18T08:38:43;101363.34;;;12.70;90.59
37238;BME280;23129;49.662;8.448;2023-02-18T08:41:13;101349.31;;;12.71;90.59
37238;BME280;23129;49.662;8.448;2023-02-18T08:43:41;101351.03;;;12.72;90.65
37238;BME280;23129;49.662;8.448;2023-02-18T08:46:10;101355.38;;;12.75;90.40
37238;BME280;23129;49.662;8.448;2023-02-18T08:48:42;101354.44;;;12.77;90.19
37238;BME280;23129;49.662;8.448;2023-02-18T08:51:14;101354.38;;;12.79;90.18
37238;BME280;23129;49.662;8.448;2023-02-18T08:53:43;101362.28;;;12.81;90.02
37238;BME280;23129;49.662;8.448;2023-02-18T08:56:15;101377.16;;;12.82;89.77
37238;BME280;23129;49.662;8.448;2023-02-18T08:58:44;101371.81;;;12.85;89.50
37238;BME280;23129;49.662;8.448;2023-02-18T09:01:13;101377.94;;;12.85;89.34
37238;BME280;23129;49.662;8.448;2023-02-18T09:03:41;101377.03;;;12.88;89.42
37238;BME280;23129;49.662;8.448;2023-02-18T09:06:11;101397.16;;;12.90;89.23
37238;BME280;23129;49.662;8.448;2023-02-18T09:08:39;101384.84;;;12.91;88.53
37238;BME280;23129;49.662;8.448;2023-02-18T09:11:08;101389.13;;;12.95;88.41
37238;BME280;23129;49.662;8.448;2023-02-18T09:13:39;101379.44;;;12.97;88.12
37238;BME280;23129;49.662;8.448;2023-02-18T09:16:11;101381.09;;;13.01;87.62
37238;BME280;23129;49.662;8.448;2023-02-18T09:18:40;101385.47;;;13.02;87.30
37238;BME280;23129;49.662;8.448;2023-02-18T09:21:12;101367.91;;;13.02;86.98
37238;BME280;23129;49.662;8.448;2023-02-18T09:23:42;101376.66;;;13.03;86.86
37238;BME280;23129;49.662;8.448;2023-02-18T09:26:13;101367.84;;;13.04;86.66
37238;BME280;23129;49.662;8.448;2023-02-18T09:28:44;101370.47;;;13.04;86.18
37238;BME280;23129;49.662;8.448;2023-02-18T09:31:15;101371.41;;;13.03;85.30
37238;BME280;23129;49.662;8.448;2023-02-18T09:33:46;101373.13;;;13.04;86.10
37238;BME280;23129;49.662;8.448;2023-02-18T09:36:15;101382.72;;;13.07;86.29
37238;BME280;23129;49.662;8.448;2023-02-18T09:38:44;101374.81;;;13.08;85.84
37238;BME280;23129;49.662;8.448;2023-02-18T09:41:20;101370.41;;;13.09;85.92
37238;BME280;23129;49.662;8.448;2023-02-18T09:43:55;101382.66;;;13.10;86.00
37238;BME280;23129;49.662;8.448;2023-02-18T09:46:29;101386.19;;;13.10;85.57
37238;BME280;23129;49.662;8.448;2023-02-18T09:49:02;101375.59;;;13.12;85.53
37238;BME280;23129;49.662;8.448;2023-02-18T09:51:31;101374.69;;;13.13;85.96
37238;BME280;23129;49.662;8.448;2023-02-18T09:54:00;101375.56;;;13.13;85.61
37238;BME280;23129;49.662;8.448;2023-02-18T09:56:31;101369.38;;;13.14;85.60
37238;BME280;23129;49.662;8.448;2023-02-18T09:59:04;101379.94;;;13.14;85.38
37238;BME280;23129;49.662;8.448;2023-02-18T10:01:38;101375.50;;;13.15;85.27
37238;BME280;23129;49.662;8.448;2023-02-18T10:04:14;101378.13;;;13.16;84.85
37238;BME280;23129;49.662;8.448;2023-02-18T10:06:45;101355.16;;;13.21;83.97
37238;BME280;23129;49.662;8.448;2023-02-18T10:09:19;101366.44;;;13.28;84.82
37238;BME280;23129;49.662;8.448;2023-02-18T10:11:53;101358.28;;;13.39;84.38
37238;BME280;23129;49.662;8.448;2023-02-18T10:14:24;101357.09;;;13.52;84.16
37238;BME280;23129;49.662;8.448;2023-02-18T10:16:53;101356.78;;;13.64;83.83
37238;BME280;23129;49.662;8.448;2023-02-18T10:19:26;101362.69;;;13.73;83.50
37238;BME280;23129;49.662;8.448;2023-02-18T10:21:56;101349.34;;;13.79;83.25
37238;BME280;23129;49.662;8.448;2023-02-18T10:24:29;101369.50;;;13.81;82.63
37238;BME280;23129;49.662;8.448;2023-02-18T10:27:00;101368.56;;;13.84;82.16
37238;BME280;23129;49.662;8.448;2023-02-18T10:29:32;101374.75;;;13.83;81.77
37238;BME280;23129;49.662;8.448;2023-02-18T10:32:06;101365.06;;;13.83;81.83
37238;BME280;23129;49.662;8.448;2023-02-18T10:34:42;101380.09;;;13.80;81.33
37238;BME280;23129;49.662;8.448;2023-02-18T10:37:37;101376.78;;;13.72;81.63
37238;BME280;23129;49.662;8.448;2023-02-18T10:40:14;101382.06;;;13.72;81.53
37238;BME280;23129;49.662;8.448;2023-02-18T10:42:58;101387.38;;;13.70;81.15
37238;BME280;23129;49.662;8.448;2023-02-18T10:45:41;101379.47;;;13.70;80.92
37238;BME280;23129;49.662;8.448;2023-02-18T10:48:32;101375.00;;;13.74;80.75
37238;BME280;23129;49.662;8.448;2023-02-18T10:51:14;101371.28;;;13.81;80.54
37238;BME280;23129;49.662;8.448;2023-02-18T10:53:45;101364.22;;;13.81;80.64
37238;BME280;23129;49.662;8.448;2023-02-18T10:56:37;101363.34;;;13.82;80.77
37238;BME280;23129;49.662;8.448;2023-02-18T10:59:12;101357.09;;;13.85;80.32
37238;BME280;23129;49.662;8.448;2023-02-18T11:01:42;101345.50;;;13.90;79.99
37238;BME280;23129;49.662;8.448;2023-02-18T11:04:15;101359.53;;;13.92;78.96
37238;BME280;23129;49.662;8.448;2023-02-18T11:06:46;101349.84;;;13.93;78.48
37238;BME280;23129;49.662;8.448;2023-02-18T11:09:29;101334.09;;;13.90;78.15
37238;BME280;23129;49.662;8.448;2023-02-18T11:12:02;101350.78;;;13.90;77.55
37238;BME280;23129;49.662;8.448;2023-02-18T11:14:42;101353.47;;;13.89;77.74
37238;BME280;23129;49.662;8.448;2023-02-18T11:17:21;101338.53;;;13.88;77.84
37238;BME280;23129;49.662;8.448;2023-02-18T11:19:56;101333.25;;;13.89;76.96
37238;BME280;23129;49.662;8.448;2023-02-18T11:22:29;101330.63;;;13.88;76.38
37238;BME280;23129;49.662;8.448;2023-02-18T11:25:01;101329.75;;;13.89;76.53
37238;BME280;23129;49.662;8.448;2023-02-18T11:27:34;101328.72;;;13.95;76.46
37238;BME280;23129;49.662;8.448;2023-02-18T11:30:18;101328.22;;;14.11;76.50
37238;BME280;23129;49.662;8.448;2023-02-18T11:32:52;101329.25;;;14.37;76.42
37238;BME280;23129;49.662;8.448;2023-02-18T11:35:24;101304.69;;;14.65;75.66
37238;BME280;23129;49.662;8.448;2023-02-18T11:37:56;101313.28;;;14.99;74.79
37238;BME280;23129;49.662;8.448;2023-02-18T11:40:30;101306.78;;;15.36;73.80
37238;BME280;23129;49.662;8.448;2023-02-18T11:43:05;101310.81;;;15.73;73.54
37238;BME280;23129;49.662;8.448;2023-02-18T11:45:34;101306.50;;;15.95;72.07
37238;BME280;23129;49.662;8.448;2023-02-18T11:48:13;101300.75;;;16.08;71.27
37238;BME280;23129;49.662;8.448;2023-02-18T11:50:43;101291.53;;;16.18;70.02
37238;BME280;23129;49.662;8.448;2023-02-18T11:53:29;101293.31;;;16.41;70.16
37238;BME280;23129;49.662;8.448;2023-02-18T11:56:00;101284.38;;;16.67;68.36
37238;BME280;23129;49.662;8.448;2023-02-18T11:58:37;101280.84;;;16.66;68.69
37238;BME280;23129;49.662;8.448;2023-02-18T12:01:14;101292.97;;;16.50;68.41
37238;BME280;23129;49.662;8.448;2023-02-18T12:03:52;101272.88;;;16.44;68.71
37238;BME280;23129;49.662;8.448;2023-02-18T12:06:27;101282.88;;;16.60;67.64
37238;BME280;23129;49.662;8.448;2023-02-18T12:09:02;101282.28;;;16.75;66.39
37238;BME280;23129;49.662;8.448;2023-02-18T12:11:35;101268.38;;;16.92;66.65
37238;BME280;23129;49.662;8.448;2023-02-18T12:14:13;101279.06;;;17.11;65.42
37238;BME280;23129;49.662;8.448;2023-02-18T12:16:57;101261.56;;;17.07;65.32
37238;BME280;23129;49.662;8.448;2023-02-18T12:20:07;101261.00;;;16.99;66.10
37238;BME280;23129;49.662;8.448;2023-02-18T12:22:45;101251.03;;;17.05;64.81
37238;BME280;23129;49.662;8.448;2023-02-18T12:25:24;101258.63;;;16.93;65.78
37238;BME280;23129;49.662;8.448;2023-02-18T12:28:16;101243.44;;;16.74;65.44
37238;BME280;23129;49.662;8.448;2023-02-18T12:31:12;101251.31;;;16.54;65.50
37238;BME280;23129;49.662;8.448;2023-02-18T12:33:58;101261.66;;;16.38;65.28
37238;BME280;23129;49.662;8.448;2023-02-18T12:36:45;101251.59;;;16.24;65.29
37238;BME280;23129;49.662;8.448;2023-02-18T12:39:30;101224.59;;;16.16;64.98
37238;BME280;23129;49.662;8.448;2023-02-18T12:42:15;101222.09;;;16.11;64.71
37238;BME280;23129;49.662;8.448;2023-02-18T12:45:06;101243.59;;;16.04;64.59
37238;BME280;23129;49.662;8.448;2023-02-18T12:48:25;101227.13;;;15.95;65.24
37238;BME280;23129;49.662;8.448;2023-02-18T12:51:12;101216.78;;;15.89;65.23
37238;BME280;23129;49.662;8.448;2023-02-18T12:54:03;101211.81;;;15.80;66.00
37238;BME280;23129;49.662;8.448;2023-02-18T12:57:06;101213.13;;;15.68;66.08
37238;BME280;23129;49.662;8.448;2023-02-18T13:00:12;101202.13;;;15.56;66.58
37238;BME280;23129;49.662;8.448;2023-02-18T13:06:07;101178.41;;;15.29;66.94
37238;BME280;23129;49.662;8.448;2023-02-18T13:08:52;101187.44;;;15.22;67.56
37238;BME280;23129;49.662;8.448;2023-02-18T13:11:39;101190.38;;;15.14;67.61
37238;BME280;23129;49.662;8.448;2023-02-18T13:14:13;101202.00;;;15.09;67.46
37238;BME280;23129;49.662;8.448;2023-02-18T13:16:48;101204.03;;;15.00;67.56
37238;BME280;23129;49.662;8.448;2023-02-18T13:19:21;101191.00;;;14.96;67.40
37238;BME280;23129;49.662;8.448;2023-02-18T13:21:56;101167.38;;;14.91;67.60
37238;BME280;23129;49.662;8.448;2023-02-18T13:24:33;101195.72;;;14.86;67.65
37238;BME280;23129;49.662;8.448;2023-02-18T13:27:15;101177.41;;;14.81;67.51
37238;BME280;23129;49.662;8.448;2023-02-18T13:29:52;101174.09;;;14.75;67.70
37238;BME280;23129;49.662;8.448;2023-02-18T13:32:28;101180.38;;;14.71;67.76